sensor_id;sensor_type;location;lat;lon;timestamp;temperature;humidity
13694;DHT22;6919;52.344;14.518;2022-11-13T00:01:23;10.60;13.90
13694;DHT22;6919;52.344;14.518;2022-11-13T00:03:52;10.60;20.50
13694;DHT22;6919;52.344;14.518;2022-11-13T00:06:21;10.70;11.70
13694;DHT22;6919;52.344;14.518;2022-11-13T00:08:52;10.70;2.30
13694;DHT22;6919;52.344;14.518;2022-11-13T00:11:23;10.70;1.00
13694;DHT22;6919;52.344;14.518;2022-11-13T00:13:52;10.60;2.80
13694;DHT22;6919;52.344;14.518;2022-11-13T00:16:20;10.60;9.20
13694;DHT22;6919;52.344;14.518;2022-11-13T00:18:49;10.60;10.00
13694;DHT22;6919;52.344;14.518;2022-11-13T00:21:20;10.60;18.40
13694;DHT22;6919;52.344;14.518;2022-11-13T00:23:50;10.60;10.40
13694;DHT22;6919;52.344;14.518;2022-11-13T00:26:21;10.60;11.00
13694;DHT22;6919;52.344;14.518;2022-11-13T00:28:52;10.50;11.40
13694;DHT22;6919;52.344;14.518;2022-11-13T00:31:22;10.60;19.20
13694;DHT22;6919;52.344;14.518;2022-11-13T00:33:51;10.60;9.70
13694;DHT22;6919;52.344;14.518;2022-11-13T00:36:39;10.50;17.30
13694;DHT22;6919;52.344;14.518;2022-11-13T00:39:08;10.60;6.30
13694;DHT22;6919;52.344;14.518;2022-11-13T00:41:38;10.60;3.00
13694;DHT22;6919;52.344;14.518;2022-11-13T00:44:06;10.60;5.30
13694;DHT22;6919;52.344;14.518;2022-11-13T00:46:35;10.80;1.00
13694;DHT22;6919;52.344;14.518;2022-11-13T00:49:03;10.70;1.00
13694;DHT22;6919;52.344;14.518;2022-11-13T00:51:32;10.50;1.00
13694;DHT22;6919;52.344;14.518;2022-11-13T00:54:00;10.60;6.10
13694;DHT22;6919;52.344;14.518;2022-11-13T00:56:29;10.70;1.00
13694;DHT22;6919;52.344;14.518;2022-11-13T00:58:59;10.60;1.00
13694;DHT22;6919;52.344;14.518;2022-11-13T01:01:27;10.70;1.00
13694;DHT22;6919;52.344;14.518;2022-11-13T01:03:55;10.70;1.00
13694;DHT22;6919;52.344;14.518;2022-11-13T01:06:25;10.70;1.00
13694;DHT22;6919;52.344;14.518;2022-11-13T01:08:55;10.80;1.00
13694;DHT22;6919;52.344;14.518;2022-11-13T01:11:27;10.80;1.00
13694;DHT22;6919;52.344;14.518;2022-11-13T01:13:58;10.80;1.00
13694;DHT22;6919;52.344;14.518;2022-11-13T01:16:27;10.70;1.00
13694;DHT22;6919;52.344;14.518;2022-11-13T01:18:56;10.80;1.00
13694;DHT22;6919;52.344;14.518;2022-11-13T01:21:25;10.80;1.00
13694;DHT22;6919;52.344;14.518;2022-11-13T01:23:55;10.90;1.00
13694;DHT22;6919;52.344;14.518;2022-11-13T01:26:25;10.90;1.00
13694;DHT22;6919;52.344;14.518;2022-11-13T01:28:57;10.80;1.00
13694;DHT22;6919;52.344;14.518;2022-11-13T01:31:28;10.60;1.00
13694;DHT22;6919;52.344;14.518;2022-11-13T01:33:58;10.60;1.00
13694;DHT22;6919;52.344;14.518;2022-11-13T01:36:28;10.70;1.00
13694;DHT22;6919;52.344;14.518;2022-11-13T01:38:56;10.70;1.00
13694;DHT22;6919;52.344;14.518;2022-11-13T01:41:27;10.60;1.00
13694;DHT22;6919;52.344;14.518;2022-11-13T01:43:59;10.50;1.00
13694;DHT22;6919;52.344;14.518;2022-11-13T01:46:30;10.60;3.90
13694;DHT22;6919;52.344;14.518;2022-11-13T01:49:14;10.70;1.00
13694;DHT22;6919;52.344;14.518;2022-11-13T01:51:55;10.70;1.00
13694;DHT22;6919;52.344;14.518;2022-11-13T01:54:27;10.60;1.00
13694;DHT22;6919;52.344;14.518;2022-11-13T01:56:58;10.60;1.00
13694;DHT22;6919;52.344;14.518;2022-11-13T01:59:32;10.60;1.00
13694;DHT22;6919;52.344;14.518;2022-11-13T02:02:03;10.60;3.50
13694;DHT22;6919;52.344;14.518;2022-11-13T02:04:32;10.60;8.50
13694;DHT22;6919;52.344;14.518;2022-11-13T02:07:03;10.70;3.30
13694;DHT22;6919;52.344;14.518;2022-11-13T02:09:35;10.80;1.00
13694;DHT22;6919;52.344;14.518;2022-11-13T02:12:07;10.70;1.00
13694;DHT22;6919;52.344;14.518;2022-11-13T02:14:42;10.60;1.00
13694;DHT22;6919;52.344;14.518;2022-11-13T02:17:15;10.70;1.00
13694;DHT22;6919;52.344;14.518;2022-11-13T02:19:50;10.70;3.60
13694;DHT22;6919;52.344;14.518;2022-11-13T02:22:27;10.80;1.00
13694;DHT22;6919;52.344;14.518;2022-11-13T02:25:00;10.70;1.00
13694;DHT22;6919;52.344;14.518;2022-11-13T02:27:35;10.60;2.90
13694;DHT22;6919;52.344;14.518;2022-11-13T02:30:14;10.70;5.00
13694;DHT22;6919;52.344;14.518;2022-11-13T02:32:52;10.80;3.50
13694;DHT22;6919;52.344;14.518;2022-11-13T02:35:24;10.70;1.00
13694;DHT22;6919;52.344;14.518;2022-11-13T02:37:58;10.80;1.00
13694;DHT22;6919;52.344;14.518;2022-11-13T02:40:31;10.80;1.00
13694;DHT22;6919;52.344;14.518;2022-11-13T02:43:00;10.70;1.00
13694;DHT22;6919;52.344;14.518;2022-11-13T02:45:29;10.70;16.60
13694;DHT22;6919;52.344;14.518;2022-11-13T02:47:59;10.70;18.90
13694;DHT22;6919;52.344;14.518;2022-11-13T02:50:27;10.70;15.10
13694;DHT22;6919;52.344;14.518;2022-11-13T02:52:56;10.90;3.10
13694;DHT22;6919;52.344;14.518;2022-11-13T02:55:25;10.70;1.20
13694;DHT22;6919;52.344;14.518;2022-11-13T02:57:54;10.60;17.10
13694;DHT22;6919;52.344;14.518;2022-11-13T03:00:23;10.60;29.80
13694;DHT22;6919;52.344;14.518;2022-11-13T03:02:52;10.70;37.30
13694;DHT22;6919;52.344;14.518;2022-11-13T03:05:21;10.70;27.60
13694;DHT22;6919;52.344;14.518;2022-11-13T03:07:49;10.60;29.80
13694;DHT22;6919;52.344;14.518;2022-11-13T03:10:18;10.50;47.10
13694;DHT22;6919;52.344;14.518;2022-11-13T03:12:46;10.50;58.80
13694;DHT22;6919;52.344;14.518;2022-11-13T03:15:16;10.50;69.30
13694;DHT22;6919;52.344;14.518;2022-11-13T03:17:45;10.50;58.80
13694;DHT22;6919;52.344;14.518;2022-11-13T03:20:13;10.60;59.50
13694;DHT22;6919;52.344;14.518;2022-11-13T03:22:42;10.60;50.70
13694;DHT22;6919;52.344;14.518;2022-11-13T03:25:10;10.60;52.60
13694;DHT22;6919;52.344;14.518;2022-11-13T03:27:39;10.60;55.40
13694;DHT22;6919;52.344;14.518;2022-11-13T03:30:08;10.60;52.30
13694;DHT22;6919;52.344;14.518;2022-11-13T03:32:38;10.50;58.40
13694;DHT22;6919;52.344;14.518;2022-11-13T03:35:07;10.50;64.80
13694;DHT22;6919;52.344;14.518;2022-11-13T03:37:36;10.50;67.20
13694;DHT22;6919;52.344;14.518;2022-11-13T03:40:05;10.50;69.90
13694;DHT22;6919;52.344;14.518;2022-11-13T03:42:34;10.40;79.10
13694;DHT22;6919;52.344;14.518;2022-11-13T03:45:03;10.50;86.70
13694;DHT22;6919;52.344;14.518;2022-11-13T03:47:32;10.60;82.30
13694;DHT22;6919;52.344;14.518;2022-11-13T03:50:02;10.60;66.90
13694;DHT22;6919;52.344;14.518;2022-11-13T03:52:31;10.70;64.30
13694;DHT22;6919;52.344;14.518;2022-11-13T03:54:59;10.80;44.00
13694;DHT22;6919;52.344;14.518;2022-11-13T03:57:27;10.70;36.00
13694;DHT22;6919;52.344;14.518;2022-11-13T03:59:57;10.60;47.00
13694;DHT22;6919;52.344;14.518;2022-11-13T04:02:26;10.60;55.70
13694;DHT22;6919;52.344;14.518;2022-11-13T04:04:54;10.60;59.30
13694;DHT22;6919;52.344;14.518;2022-11-13T04:07:24;10.60;69.40
13694;DHT22;6919;52.344;14.518;2022-11-13T04:09:52;10.60;65.40
13694;DHT22;6919;52.344;14.518;2022-11-13T04:12:20;10.90;47.50
13694;DHT22;6919;52.344;14.518;2022-11-13T04:14:48;10.90;17.60
13694;DHT22;6919;52.344;14.518;2022-11-13T04:17:17;10.70;20.60
13694;DHT22;6919;52.344;14.518;2022-11-13T04:19:45;10.70;43.50
13694;DHT22;6919;52.344;14.518;2022-11-13T04:22:13;10.70;43.10
13694;DHT22;6919;52.344;14.518;2022-11-13T04:24:43;10.70;48.10
13694;DHT22;6919;52.344;14.518;2022-11-13T04:27:11;10.70;50.90
13694;DHT22;6919;52.344;14.518;2022-11-13T04:29:40;10.70;53.00
13694;DHT22;6919;52.344;14.518;2022-11-13T04:32:08;10.80;50.90
13694;DHT22;6919;52.344;14.518;2022-11-13T04:34:36;10.80;43.80
13694;DHT22;6919;52.344;14.518;2022-11-13T04:37:05;10.70;43.40
13694;DHT22;6919;52.344;14.518;2022-11-13T04:39:33;10.50;53.20
13694;DHT22;6919;52.344;14.518;2022-11-13T04:42:03;10.50;75.20
13694;DHT22;6919;52.344;14.518;2022-11-13T04:44:45;10.50;71.50
13694;DHT22;6919;52.344;14.518;2022-11-13T04:47:14;10.60;82.60
13694;DHT22;6919;52.344;14.518;2022-11-13T04:49:42;10.50;79.70
13694;DHT22;6919;52.344;14.518;2022-11-13T04:52:10;10.40;90.30
13694;DHT22;6919;52.344;14.518;2022-11-13T04:54:39;10.70;90.20
13694;DHT22;6919;52.344;14.518;2022-11-13T04:57:09;10.70;56.60
13694;DHT22;6919;52.344;14.518;2022-11-13T04:59:37;10.60;53.90
13694;DHT22;6919;52.344;14.518;2022-11-13T05:02:05;10.60;46.70
13694;DHT22;6919;52.344;14.518;2022-11-13T05:04:34;10.50;64.50
13694;DHT22;6919;52.344;14.518;2022-11-13T05:07:02;10.50;80.30
13694;DHT22;6919;52.344;14.518;2022-11-13T05:09:31;10.60;64.90
13694;DHT22;6919;52.344;14.518;2022-11-13T05:11:59;10.40;72.60
13694;DHT22;6919;52.344;14.518;2022-11-13T05:14:29;10.40;97.40
13694;DHT22;6919;52.344;14.518;2022-11-13T05:16:57;10.50;97.00
13694;DHT22;6919;52.344;14.518;2022-11-13T05:19:26;10.60;86.70
13694;DHT22;6919;52.344;14.518;2022-11-13T05:21:54;10.70;49.20
13694;DHT22;6919;52.344;14.518;2022-11-13T05:24:22;10.70;52.40
13694;DHT22;6919;52.344;14.518;2022-11-13T05:26:51;10.60;52.20
13694;DHT22;6919;52.344;14.518;2022-11-13T05:29:19;10.50;68.40
13694;DHT22;6919;52.344;14.518;2022-11-13T05:31:49;10.60;65.30
13694;DHT22;6919;52.344;14.518;2022-11-13T05:34:17;10.60;61.40
13694;DHT22;6919;52.344;14.518;2022-11-13T05:36:46;10.80;53.40
13694;DHT22;6919;52.344;14.518;2022-11-13T05:39:14;10.80;37.00
13694;DHT22;6919;52.344;14.518;2022-11-13T05:41:43;10.60;45.30
13694;DHT22;6919;52.344;14.518;2022-11-13T05:44:11;10.60;47.80
13694;DHT22;6919;52.344;14.518;2022-11-13T05:46:39;10.60;49.60
13694;DHT22;6919;52.344;14.518;2022-11-13T05:49:09;10.50;54.30
13694;DHT22;6919;52.344;14.518;2022-11-13T05:51:37;10.60;54.40
13694;DHT22;6919;52.344;14.518;2022-11-13T05:54:06;10.50;54.70
13694;DHT22;6919;52.344;14.518;2022-11-13T05:56:35;10.60;65.40
13694;DHT22;6919;52.344;14.518;2022-11-13T05:59:04;10.70;34.40
13694;DHT22;6919;52.344;14.518;2022-11-13T06:01:34;10.70;25.00
13694;DHT22;6919;52.344;14.518;2022-11-13T06:04:05;10.60;16.20
13694;DHT22;6919;52.344;14.518;2022-11-13T06:06:35;10.60;32.50
13694;DHT22;6919;52.344;14.518;2022-11-13T06:09:05;10.40;38.30
13694;DHT22;6919;52.344;14.518;2022-11-13T06:11:34;10.40;57.40
13694;DHT22;6919;52.344;14.518;2022-11-13T06:14:02;10.40;59.10
13694;DHT22;6919;52.344;14.518;2022-11-13T06:16:34;10.50;59.60
13694;DHT22;6919;52.344;14.518;2022-11-13T06:19:05;10.60;35.20
13694;DHT22;6919;52.344;14.518;2022-11-13T06:21:38;10.60;32.20
13694;DHT22;6919;52.344;14.518;2022-11-13T06:24:09;10.50;34.80
13694;DHT22;6919;52.344;14.518;2022-11-13T06:26:39;10.60;32.10
13694;DHT22;6919;52.344;14.518;2022-11-13T06:29:10;10.70;18.80
13694;DHT22;6919;52.344;14.518;2022-11-13T06:31:39;10.60;21.80
13694;DHT22;6919;52.344;14.518;2022-11-13T06:34:07;10.80;15.10
13694;DHT22;6919;52.344;14.518;2022-11-13T06:36:37;10.70;14.20
13694;DHT22;6919;52.344;14.518;2022-11-13T06:39:06;10.70;9.40
13694;DHT22;6919;52.344;14.518;2022-11-13T06:41:37;10.60;8.80
13694;DHT22;6919;52.344;14.518;2022-11-13T06:44:05;10.60;2.90
13694;DHT22;6919;52.344;14.518;2022-11-13T06:46:34;10.80;1.00
13694;DHT22;6919;52.344;14.518;2022-11-13T06:49:02;10.80;1.00
13694;DHT22;6919;52.344;14.518;2022-11-13T06:51:31;10.80;1.00
13694;DHT22;6919;52.344;14.518;2022-11-13T06:54:01;10.70;1.00
13694;DHT22;6919;52.344;14.518;2022-11-13T06:56:29;10.90;1.00
13694;DHT22;6919;52.344;14.518;2022-11-13T06:58:58;10.80;1.00
13694;DHT22;6919;52.344;14.518;2022-11-13T07:01:26;10.70;1.00
13694;DHT22;6919;52.344;14.518;2022-11-13T07:03:55;10.50;1.00
13694;DHT22;6919;52.344;14.518;2022-11-13T07:06:23;10.70;1.00
13694;DHT22;6919;52.344;14.518;2022-11-13T07:08:52;10.70;1.00
13694;DHT22;6919;52.344;14.518;2022-11-13T07:11:22;10.70;1.00
13694;DHT22;6919;52.344;14.518;2022-11-13T07:13:51;10.60;1.00
13694;DHT22;6919;52.344;14.518;2022-11-13T07:16:19;10.60;1.00
13694;DHT22;6919;52.344;14.518;2022-11-13T07:18:51;10.60;1.00
13694;DHT22;6919;52.344;14.518;2022-11-13T07:21:21;10.60;1.00
13694;DHT22;6919;52.344;14.518;2022-11-13T07:23:49;10.60;1.00
13694;DHT22;6919;52.344;14.518;2022-11-13T07:26:18;10.70;1.00
13694;DHT22;6919;52.344;14.518;2022-11-13T07:28:48;10.80;1.00
13694;DHT22;6919;52.344;14.518;2022-11-13T07:31:17;10.60;1.00
13694;DHT22;6919;52.344;14.518;2022-11-13T07:33:47;10.60;1.00
13694;DHT22;6919;52.344;14.518;2022-11-13T07:36:17;10.70;1.00
13694;DHT22;6919;52.344;14.518;2022-11-13T07:38:45;10.70;1.00
13694;DHT22;6919;52.344;14.518;2022-11-13T07:41:13;10.70;1.00
13694;DHT22;6919;52.344;14.518;2022-11-13T07:43:42;10.60;1.00
13694;DHT22;6919;52.344;14.518;2022-11-13T07:46:11;10.50;1.00
13694;DHT22;6919;52.344;14.518;2022-11-13T07:48:40;10.60;1.00
13694;DHT22;6919;52.344;14.518;2022-11-13T07:51:08;10.60;1.00
13694;DHT22;6919;52.344;14.518;2022-11-13T07:53:36;10.50;1.00
13694;DHT22;6919;52.344;14.518;2022-11-13T07:56:05;10.60;1.00
13694;DHT22;6919;52.344;14.518;2022-11-13T07:58:35;10.60;1.00
13694;DHT22;6919;52.344;14.518;2022-11-13T08:01:04;10.60;1.00
13694;DHT22;6919;52.344;14.518;2022-11-13T08:03:34;10.50;1.00
13694;DHT22;6919;52.344;14.518;2022-11-13T08:06:04;10.40;1.00
13694;DHT22;6919;52.344;14.518;2022-11-13T08:08:34;10.50;1.00
13694;DHT22;6919;52.344;14.518;2022-11-13T08:11:04;10.50;1.00
13694;DHT22;6919;52.344;14.518;2022-11-13T08:13:33;10.40;1.00
13694;DHT22;6919;52.344;14.518;2022-11-13T08:16:02;10.40;1.00
13694;DHT22;6919;52.344;14.518;2022-11-13T08:18:33;10.30;1.00
13694;DHT22;6919;52.344;14.518;2022-11-13T08:21:04;10.30;1.00
13694;DHT22;6919;52.344;14.518;2022-11-13T08:23:40;10.30;1.00
13694;DHT22;6919;52.344;14.518;2022-11-13T08:26:09;10.40;1.00
13694;DHT22;6919;52.344;14.518;2022-11-13T08:28:38;10.40;1.00
13694;DHT22;6919;52.344;14.518;2022-11-13T08:31:09;10.40;1.00
13694;DHT22;6919;52.344;14.518;2022-11-13T08:33:40;10.50;1.00
13694;DHT22;6919;52.344;14.518;2022-11-13T08:36:10;10.50;1.00
13694;DHT22;6919;52.344;14.518;2022-11-13T08:38:38;10.40;1.00
13694;DHT22;6919;52.344;14.518;2022-11-13T08:41:07;10.40;1.00
13694;DHT22;6919;52.344;14.518;2022-11-13T08:43:35;10.50;1.00
13694;DHT22;6919;52.344;14.518;2022-11-13T08:46:04;10.40;1.00
13694;DHT22;6919;52.344;14.518;2022-11-13T08:48:33;10.40;1.00
13694;DHT22;6919;52.344;14.518;2022-11-13T08:51:03;10.40;1.00
13694;DHT22;6919;52.344;14.518;2022-11-13T08:53:32;10.50;1.00
13694;DHT22;6919;52.344;14.518;2022-11-13T08:56:01;10.40;99.90
13694;DHT22;6919;52.344;14.518;2022-11-13T08:58:30;10.40;1.00
13694;DHT22;6919;52.344;14.518;2022-11-13T09:00:59;10.50;1.00
13694;DHT22;6919;52.344;14.518;2022-11-13T09:03:28;10.50;1.00
13694;DHT22;6919;52.344;14.518;2022-11-13T09:05:56;10.50;99.90
13694;DHT22;6919;52.344;14.518;2022-11-13T09:08:28;10.70;99.90
13694;DHT22;6919;52.344;14.518;2022-11-13T09:11:01;10.60;99.90
13694;DHT22;6919;52.344;14.518;2022-11-13T09:13:31;10.70;99.90
13694;DHT22;6919;52.344;14.518;2022-11-13T09:16:07;10.60;99.90
13694;DHT22;6919;52.344;14.518;2022-11-13T09:18:35;10.60;99.90
13694;DHT22;6919;52.344;14.518;2022-11-13T09:21:04;10.70;1.00
13694;DHT22;6919;52.344;14.518;2022-11-13T09:23:34;10.70;99.90
13694;DHT22;6919;52.344;14.518;2022-11-13T09:26:02;10.60;1.00
13694;DHT22;6919;52.344;14.518;2022-11-13T09:28:31;10.50;1.00
13694;DHT22;6919;52.344;14.518;2022-11-13T09:31:02;10.60;1.00
13694;DHT22;6919;52.344;14.518;2022-11-13T09:33:31;10.60;1.00
13694;DHT22;6919;52.344;14.518;2022-11-13T09:36:00;10.50;1.00
13694;DHT22;6919;52.344;14.518;2022-11-13T09:38:29;10.50;1.00
13694;DHT22;6919;52.344;14.518;2022-11-13T09:41:02;10.50;1.00
13694;DHT22;6919;52.344;14.518;2022-11-13T09:43:41;10.50;1.00
13694;DHT22;6919;52.344;14.518;2022-11-13T09:46:17;10.50;1.00
13694;DHT22;6919;52.344;14.518;2022-11-13T09:48:54;10.60;1.00
13694;DHT22;6919;52.344;14.518;2022-11-13T09:51:29;10.60;1.00
13694;DHT22;6919;52.344;14.518;2022-11-13T09:54:04;10.60;99.90
13694;DHT22;6919;52.344;14.518;2022-11-13T09:56:39;10.40;1.00
13694;DHT22;6919;52.344;14.518;2022-11-13T09:59:15;10.40;1.00
13694;DHT22;6919;52.344;14.518;2022-11-13T10:01:57;10.40;1.00
13694;DHT22;6919;52.344;14.518;2022-11-13T10:04:36;10.30;1.00
13694;DHT22;6919;52.344;14.518;2022-11-13T10:07:23;10.30;1.00
13694;DHT22;6919;52.344;14.518;2022-11-13T10:10:26;10.20;1.00
13694;DHT22;6919;52.344;14.518;2022-11-13T10:13:06;10.20;1.00
13694;DHT22;6919;52.344;14.518;2022-11-13T10:15:41;10.10;70.50
13694;DHT22;6919;52.344;14.518;2022-11-13T10:18:15;10.30;1.00
13694;DHT22;6919;52.344;14.518;2022-11-13T10:20:49;10.30;1.00
13694;DHT22;6919;52.344;14.518;2022-11-13T10:23:25;10.30;10.50
13694;DHT22;6919;52.344;14.518;2022-11-13T10:26:08;10.40;1.00
13694;DHT22;6919;52.344;14.518;2022-11-13T10:28:43;10.40;99.90
13694;DHT22;6919;52.344;14.518;2022-11-13T10:31:17;10.50;99.90
13694;DHT22;6919;52.344;14.518;2022-11-13T10:33:45;10.60;1.00
13694;DHT22;6919;52.344;14.518;2022-11-13T10:36:20;10.80;99.90
13694;DHT22;6919;52.344;14.518;2022-11-13T10:39:02;10.90;1.00
13694;DHT22;6919;52.344;14.518;2022-11-13T10:41:32;11.00;99.90
13694;DHT22;6919;52.344;14.518;2022-11-13T10:44:20;11.10;99.90
13694;DHT22;6919;52.344;14.518;2022-11-13T10:46:49;11.10;1.00
13694;DHT22;6919;52.344;14.518;2022-11-13T10:49:18;11.10;1.00
13694;DHT22;6919;52.344;14.518;2022-11-13T10:51:54;11.20;1.00
13694;DHT22;6919;52.344;14.518;2022-11-13T10:54:27;11.20;1.00
13694;DHT22;6919;52.344;14.518;2022-11-13T10:56:58;11.30;40.30
13694;DHT22;6919;52.344;14.518;2022-11-13T10:59:37;11.40;1.00
13694;DHT22;6919;52.344;14.518;2022-11-13T11:02:14;11.40;1.00
13694;DHT22;6919;52.344;14.518;2022-11-13T11:04:44;11.50;1.00
13694;DHT22;6919;52.344;14.518;2022-11-13T11:07:14;11.60;1.00
13694;DHT22;6919;52.344;14.518;2022-11-13T11:09:48;11.80;99.90
13694;DHT22;6919;52.344;14.518;2022-11-13T11:12:19;11.70;1.00
13694;DHT22;6919;52.344;14.518;2022-11-13T11:15:08;11.80;1.00
13694;DHT22;6919;52.344;14.518;2022-11-13T11:17:49;11.90;1.00
13694;DHT22;6919;52.344;14.518;2022-11-13T11:20:27;11.70;99.90
13694;DHT22;6919;52.344;14.518;2022-11-13T11:23:15;11.80;51.00
13694;DHT22;6919;52.344;14.518;2022-11-13T11:25:53;11.90;99.90
13694;DHT22;6919;52.344;14.518;2022-11-13T11:28:30;11.70;99.90
13694;DHT22;6919;52.344;14.518;2022-11-13T11:31:10;11.70;99.90
13694;DHT22;6919;52.344;14.518;2022-11-13T11:33:49;11.80;1.00
13694;DHT22;6919;52.344;14.518;2022-11-13T11:36:27;11.90;99.90
13694;DHT22;6919;52.344;14.518;2022-11-13T11:39:03;12.00;99.90
13694;DHT22;6919;52.344;14.518;2022-11-13T11:41:47;12.10;99.90
13694;DHT22;6919;52.344;14.518;2022-11-13T11:44:30;12.20;1.00
13694;DHT22;6919;52.344;14.518;2022-11-13T11:47:14;12.30;1.00
13694;DHT22;6919;52.344;14.518;2022-11-13T11:49:44;12.40;1.00
13694;DHT22;6919;52.344;14.518;2022-11-13T11:52:33;12.40;99.90
13694;DHT22;6919;52.344;14.518;2022-11-13T11:55:29;12.30;1.00
13694;DHT22;6919;52.344;14.518;2022-11-13T11:58:15;12.30;1.00
13694;DHT22;6919;52.344;14.518;2022-11-13T12:01:03;12.20;1.00
13694;DHT22;6919;52.344;14.518;2022-11-13T12:03:56;12.10;33.10
13694;DHT22;6919;52.344;14.518;2022-11-13T12:06:44;12.00;1.00
13694;DHT22;6919;52.344;14.518;2022-11-13T12:09:26;11.80;1.00
13694;DHT22;6919;52.344;14.518;2022-11-13T12:12:04;11.80;1.00
13694;DHT22;6919;52.344;14.518;2022-11-13T12:14:45;11.80;1.00
13694;DHT22;6919;52.344;14.518;2022-11-13T12:17:39;11.90;1.00
13694;DHT22;6919;52.344;14.518;2022-11-13T12:20:24;12.00;99.90
13694;DHT22;6919;52.344;14.518;2022-11-13T12:23:07;11.80;1.00
13694;DHT22;6919;52.344;14.518;2022-11-13T12:25:50;11.90;1.00
13694;DHT22;6919;52.344;14.518;2022-11-13T12:28:28;11.90;99.90
13694;DHT22;6919;52.344;14.518;2022-11-13T12:31:15;11.90;99.90
13694;DHT22;6919;52.344;14.518;2022-11-13T12:34:01;11.90;1.00
13694;DHT22;6919;52.344;14.518;2022-11-13T12:36:38;11.90;1.00
13694;DHT22;6919;52.344;14.518;2022-11-13T12:39:29;12.10;1.00
13694;DHT22;6919;52.344;14.518;2022-11-13T12:42:12;12.10;1.00
13694;DHT22;6919;52.344;14.518;2022-11-13T12:44:53;12.10;1.00
13694;DHT22;6919;52.344;14.518;2022-11-13T12:47:29;12.30;1.00
13694;DHT22;6919;52.344;14.518;2022-11-13T12:50:02;12.40;1.00
13694;DHT22;6919;52.344;14.518;2022-11-13T12:52:34;12.40;99.90
13694;DHT22;6919;52.344;14.518;2022-11-13T12:55:05;12.20;99.90
13694;DHT22;6919;52.344;14.518;2022-11-13T12:57:45;12.20;99.90
13694;DHT22;6919;52.344;14.518;2022-11-13T13:00:23;12.10;1.00
13694;DHT22;6919;52.344;14.518;2022-11-13T13:03:06;12.00;1.00
13694;DHT22;6919;52.344;14.518;2022-11-13T13:06:02;11.80;1.00
13694;DHT22;6919;52.344;14.518;2022-11-13T13:08:59;11.70;1.00
13694;DHT22;6919;52.344;14.518;2022-11-13T13:11:41;11.60;99.90
13694;DHT22;6919;52.344;14.518;2022-11-13T13:14:28;11.50;1.00
13694;DHT22;6919;52.344;14.518;2022-11-13T13:17:17;11.60;1.00
13694;DHT22;6919;52.344;14.518;2022-11-13T13:19:56;11.70;99.90
13694;DHT22;6919;52.344;14.518;2022-11-13T13:22:28;11.90;38.90
13694;DHT22;6919;52.344;14.518;2022-11-13T13:25:03;11.80;1.00
13694;DHT22;6919;52.344;14.518;2022-11-13T13:27:40;11.90;1.00
13694;DHT22;6919;52.344;14.518;2022-11-13T13:30:17;11.90;1.00
13694;DHT22;6919;52.344;14.518;2022-11-13T13:32:59;11.90;1.00
13694;DHT22;6919;52.344;14.518;2022-11-13T13:35:45;11.80;1.00
13694;DHT22;6919;52.344;14.518;2022-11-13T13:38:27;11.60;99.90
13694;DHT22;6919;52.344;14.518;2022-11-13T13:41:16;11.90;1.00
13694;DHT22;6919;52.344;14.518;2022-11-13T13:44:01;12.10;99.90
13694;DHT22;6919;52.344;14.518;2022-11-13T13:46:56;12.00;99.90
13694;DHT22;6919;52.344;14.518;2022-11-13T13:49:26;12.10;99.90
13694;DHT22;6919;52.344;14.518;2022-11-13T13:51:56;12.40;1.00
13694;DHT22;6919;52.344;14.518;2022-11-13T13:54:27;12.60;99.90
13694;DHT22;6919;52.344;14.518;2022-11-13T13:57:00;12.60;99.90
13694;DHT22;6919;52.344;14.518;2022-11-13T13:59:31;12.40;1.00
13694;DHT22;6919;52.344;14.518;2022-11-13T14:02:03;12.20;1.00
13694;DHT22;6919;52.344;14.518;2022-11-13T14:04:43;12.10;1.00
13694;DHT22;6919;52.344;14.518;2022-11-13T14:07:22;11.90;1.00
13694;DHT22;6919;52.344;14.518;2022-11-13T14:10:06;11.90;99.90
13694;DHT22;6919;52.344;14.518;2022-11-13T14:12:43;11.70;99.90
13694;DHT22;6919;52.344;14.518;2022-11-13T14:15:23;11.50;1.00
13694;DHT22;6919;52.344;14.518;2022-11-13T14:18:04;11.40;28.40
13694;DHT22;6919;52.344;14.518;2022-11-13T14:20:40;11.20;99.90
13694;DHT22;6919;52.344;14.518;2022-11-13T14:23:16;11.10;99.90
13694;DHT22;6919;52.344;14.518;2022-11-13T14:25:47;11.30;1.00
13694;DHT22;6919;52.344;14.518;2022-11-13T14:28:20;11.50;1.00
13694;DHT22;6919;52.344;14.518;2022-11-13T14:30:52;11.80;1.00
13694;DHT22;6919;52.344;14.518;2022-11-13T14:33:31;12.30;99.90
13694;DHT22;6919;52.344;14.518;2022-11-13T14:36:02;12.50;99.90
13694;DHT22;6919;52.344;14.518;2022-11-13T14:38:34;12.60;99.90
13694;DHT22;6919;52.344;14.518;2022-11-13T14:41:21;12.40;99.90
13694;DHT22;6919;52.344;14.518;2022-11-13T14:43:54;11.80;1.00
13694;DHT22;6919;52.344;14.518;2022-11-13T14:46:28;11.30;1.00
13694;DHT22;6919;52.344;14.518;2022-11-13T14:48:58;10.90;1.00
13694;DHT22;6919;52.344;14.518;2022-11-13T14:51:28;10.60;1.00
13694;DHT22;6919;52.344;14.518;2022-11-13T14:53:59;10.30;1.00
13694;DHT22;6919;52.344;14.518;2022-11-13T14:56:36;10.10;99.90
13694;DHT22;6919;52.344;14.518;2022-11-13T14:59:10;9.90;1.00
13694;DHT22;6919;52.344;14.518;2022-11-13T15:01:53;9.80;1.00
13694;DHT22;6919;52.344;14.518;2022-11-13T15:04:22;9.70;99.90
13694;DHT22;6919;52.344;14.518;2022-11-13T15:06:52;9.50;99.90
13694;DHT22;6919;52.344;14.518;2022-11-13T15:09:24;9.40;1.00
13694;DHT22;6919;52.344;14.518;2022-11-13T15:11:54;9.30;1.00
13694;DHT22;6919;52.344;14.518;2022-11-13T15:14:23;9.20;1.00
13694;DHT22;6919;52.344;14.518;2022-11-13T15:16:52;9.20;1.00
13694;DHT22;6919;52.344;14.518;2022-11-13T15:19:28;9.20;1.00
13694;DHT22;6919;52.344;14.518;2022-11-13T15:22:00;9.10;1.00
13694;DHT22;6919;52.344;14.518;2022-11-13T15:24:48;9.10;1.00
13694;DHT22;6919;52.344;14.518;2022-11-13T15:27:17;9.10;1.00
13694;DHT22;6919;52.344;14.518;2022-11-13T15:29:47;9.10;1.00
13694;DHT22;6919;52.344;14.518;2022-11-13T15:32:16;9.40;1.00
13694;DHT22;6919;52.344;14.518;2022-11-13T15:34:44;9.20;1.00
13694;DHT22;6919;52.344;14.518;2022-11-13T15:37:15;9.20;1.00
13694;DHT22;6919;52.344;14.518;2022-11-13T15:39:44;9.20;1.00
13694;DHT22;6919;52.344;14.518;2022-11-13T15:42:14;9.20;1.00
13694;DHT22;6919;52.344;14.518;2022-11-13T15:44:44;9.30;1.00
13694;DHT22;6919;52.344;14.518;2022-11-13T15:47:24;9.20;1.00
13694;DHT22;6919;52.344;14.518;2022-11-13T15:49:54;9.10;1.00
13694;DHT22;6919;52.344;14.518;2022-11-13T15:52:44;9.10;1.00
13694;DHT22;6919;52.344;14.518;2022-11-13T15:55:22;9.10;1.00
13694;DHT22;6919;52.344;14.518;2022-11-13T15:57:53;9.00;1.00
13694;DHT22;6919;52.344;14.518;2022-11-13T16:00:24;8.80;1.00
13694;DHT22;6919;52.344;14.518;2022-11-13T16:02:56;8.80;1.00
13694;DHT22;6919;52.344;14.518;2022-11-13T16:05:26;8.80;1.00
13694;DHT22;6919;52.344;14.518;2022-11-13T16:07:55;8.70;1.00
13694;DHT22;6919;52.344;14.518;2022-11-13T16:10:24;8.70;1.00
13694;DHT22;6919;52.344;14.518;2022-11-13T16:12:53;8.70;1.00
13694;DHT22;6919;52.344;14.518;2022-11-13T16:15:22;8.70;1.00